sensor_id;sensor_type;location;lat;lon;timestamp;P1;durP1;ratioP1;P2;durP2;ratioP2
54201;SDS011;40108;53.152;5.844;2023-05-23T00:01:23;45.75;;;15.38;;
54201;SDS011;40108;53.152;5.844;2023-05-23T00:03:52;40.40;;;16.90;;
54201;SDS011;40108;53.152;5.844;2023-05-23T00:06:20;42.70;;;15.55;;
54201;SDS011;40108;53.152;5.844;2023-05-23T00:08:51;39.53;;;15.27;;
54201;SDS011;40108;53.152;5.844;2023-05-23T00:11:19;35.50;;;14.38;;
54201;SDS011;40108;53.152;5.844;2023-05-23T00:14:07;38.85;;;13.88;;
54201;SDS011;40108;53.152;5.844;2023-05-23T00:16:44;37.45;;;14.02;;
54201;SDS011;40108;53.152;5.844;2023-05-23T00:19:27;32.33;;;13.32;;
54201;SDS011;40108;53.152;5.844;2023-05-23T00:21:55;35.03;;;12.70;;
54201;SDS011;40108;53.152;5.844;2023-05-23T00:24:23;39.03;;;13.13;;
54201;SDS011;40108;53.152;5.844;2023-05-23T00:26:51;35.53;;;13.32;;
54201;SDS011;40108;53.152;5.844;2023-05-23T00:29:25;36.80;;;13.15;;
54201;SDS011;40108;53.152;5.844;2023-05-23T00:32:01;34.70;;;13.70;;
54201;SDS011;40108;53.152;5.844;2023-05-23T00:34:37;35.15;;;12.00;;
54201;SDS011;40108;53.152;5.844;2023-05-23T00:37:10;38.55;;;13.88;;
54201;SDS011;40108;53.152;5.844;2023-05-23T00:39:36;35.00;;;11.95;;
54201;SDS011;40108;53.152;5.844;2023-05-23T00:42:03;33.17;;;11.85;;
54201;SDS011;40108;53.152;5.844;2023-05-23T00:44:31;36.40;;;12.13;;
54201;SDS011;40108;53.152;5.844;2023-05-23T00:47:15;36.58;;;13.02;;
54201;SDS011;40108;53.152;5.844;2023-05-23T00:49:50;31.40;;;11.82;;
54201;SDS011;40108;53.152;5.844;2023-05-23T00:52:19;39.90;;;12.70;;
54201;SDS011;40108;53.152;5.844;2023-05-23T00:54:55;35.58;;;11.00;;
54201;SDS011;40108;53.152;5.844;2023-05-23T00:57:28;30.42;;;11.98;;
54201;SDS011;40108;53.152;5.844;2023-05-23T01:00:01;32.28;;;11.82;;
54201;SDS011;40108;53.152;5.844;2023-05-23T01:02:28;30.58;;;12.43;;
54201;SDS011;40108;53.152;5.844;2023-05-23T01:05:00;35.63;;;12.20;;
54201;SDS011;40108;53.152;5.844;2023-05-23T01:07:37;27.58;;;10.80;;
54201;SDS011;40108;53.152;5.844;2023-05-23T01:10:05;34.17;;;11.57;;
54201;SDS011;40108;53.152;5.844;2023-05-23T01:18:15;37.78;;;11.40;;
54201;SDS011;40108;53.152;5.844;2023-05-23T01:21:10;27.00;;;10.50;;
54201;SDS011;40108;53.152;5.844;2023-05-23T01:28:54;28.88;;;10.68;;
54201;SDS011;40108;53.152;5.844;2023-05-23T01:31:29;26.13;;;10.45;;
54201;SDS011;40108;53.152;5.844;2023-05-23T01:33:58;28.23;;;9.93;;
54201;SDS011;40108;53.152;5.844;2023-05-23T01:36:25;30.15;;;9.52;;
54201;SDS011;40108;53.152;5.844;2023-05-23T01:38:53;35.80;;;12.07;;
54201;SDS011;40108;53.152;5.844;2023-05-23T01:41:19;29.02;;;9.70;;
54201;SDS011;40108;53.152;5.844;2023-05-23T01:43:45;27.15;;;9.18;;
54201;SDS011;40108;53.152;5.844;2023-05-23T01:46:11;22.52;;;8.50;;
54201;SDS011;40108;53.152;5.844;2023-05-23T01:48:38;28.77;;;9.10;;
54201;SDS011;40108;53.152;5.844;2023-05-23T01:51:04;28.25;;;9.80;;
54201;SDS011;40108;53.152;5.844;2023-05-23T01:53:31;23.58;;;8.30;;
54201;SDS011;40108;53.152;5.844;2023-05-23T01:55:58;28.50;;;9.48;;
54201;SDS011;40108;53.152;5.844;2023-05-23T01:58:27;27.67;;;8.55;;
54201;SDS011;40108;53.152;5.844;2023-05-23T02:00:54;24.13;;;8.07;;
54201;SDS011;40108;53.152;5.844;2023-05-23T02:03:20;21.33;;;7.80;;
54201;SDS011;40108;53.152;5.844;2023-05-23T02:05:46;23.98;;;7.65;;
54201;SDS011;40108;53.152;5.844;2023-05-23T02:08:11;26.08;;;8.52;;
54201;SDS011;40108;53.152;5.844;2023-05-23T02:10:44;30.20;;;9.35;;
54201;SDS011;40108;53.152;5.844;2023-05-23T02:13:10;35.00;;;8.68;;
54201;SDS011;40108;53.152;5.844;2023-05-23T02:15:36;36.03;;;9.55;;
54201;SDS011;40108;53.152;5.844;2023-05-23T02:18:01;25.92;;;8.43;;
54201;SDS011;40108;53.152;5.844;2023-05-23T02:20:28;37.17;;;9.25;;
54201;SDS011;40108;53.152;5.844;2023-05-23T02:22:53;24.70;;;8.00;;
54201;SDS011;40108;53.152;5.844;2023-05-23T02:25:19;27.63;;;7.50;;
54201;SDS011;40108;53.152;5.844;2023-05-23T02:27:45;22.13;;;7.95;;
54201;SDS011;40108;53.152;5.844;2023-05-23T02:30:11;32.95;;;8.77;;
54201;SDS011;40108;53.152;5.844;2023-05-23T02:32:37;36.60;;;9.25;;
54201;SDS011;40108;53.152;5.844;2023-05-23T02:35:03;29.95;;;8.10;;
54201;SDS011;40108;53.152;5.844;2023-05-23T02:37:29;24.35;;;8.65;;
54201;SDS011;40108;53.152;5.844;2023-05-23T02:39:55;31.73;;;8.82;;
54201;SDS011;40108;53.152;5.844;2023-05-23T02:42:21;29.55;;;8.20;;
54201;SDS011;40108;53.152;5.844;2023-05-23T02:44:46;28.25;;;7.60;;
54201;SDS011;40108;53.152;5.844;2023-05-23T02:47:12;26.52;;;8.40;;
54201;SDS011;40108;53.152;5.844;2023-05-23T02:49:43;31.77;;;8.23;;
54201;SDS011;40108;53.152;5.844;2023-05-23T02:52:12;26.50;;;8.13;;
54201;SDS011;40108;53.152;5.844;2023-05-23T02:54:44;24.52;;;7.47;;
54201;SDS011;40108;53.152;5.844;2023-05-23T02:57:30;23.38;;;7.38;;
54201;SDS011;40108;53.152;5.844;2023-05-23T02:59:56;31.40;;;7.22;;
54201;SDS011;40108;53.152;5.844;2023-05-23T03:02:24;21.50;;;5.65;;
54201;SDS011;40108;53.152;5.844;2023-05-23T03:04:53;23.70;;;5.63;;
54201;SDS011;40108;53.152;5.844;2023-05-23T03:07:26;18.00;;;5.40;;
54201;SDS011;40108;53.152;5.844;2023-05-23T03:10:02;18.80;;;4.90;;
54201;SDS011;40108;53.152;5.844;2023-05-23T03:12:31;20.20;;;5.10;;
54201;SDS011;40108;53.152;5.844;2023-05-23T03:14:59;28.17;;;6.03;;
54201;SDS011;40108;53.152;5.844;2023-05-23T03:17:30;22.98;;;5.28;;
54201;SDS011;40108;53.152;5.844;2023-05-23T03:19:56;17.90;;;4.57;;
54201;SDS011;40108;53.152;5.844;2023-05-23T03:22:25;21.17;;;4.90;;
54201;SDS011;40108;53.152;5.844;2023-05-23T03:24:55;21.35;;;5.38;;
54201;SDS011;40108;53.152;5.844;2023-05-23T03:27:26;23.92;;;5.43;;
54201;SDS011;40108;53.152;5.844;2023-05-23T03:29:51;17.48;;;5.03;;
54201;SDS011;40108;53.152;5.844;2023-05-23T03:32:20;20.23;;;5.22;;
54201;SDS011;40108;53.152;5.844;2023-05-23T03:35:06;18.40;;;5.50;;
54201;SDS011;40108;53.152;5.844;2023-05-23T03:37:41;25.13;;;5.50;;
54201;SDS011;40108;53.152;5.844;2023-05-23T03:40:07;17.33;;;5.65;;
54201;SDS011;40108;53.152;5.844;2023-05-23T03:42:38;20.23;;;5.17;;
54201;SDS011;40108;53.152;5.844;2023-05-23T03:45:06;14.20;;;5.07;;
54201;SDS011;40108;53.152;5.844;2023-05-23T03:47:32;23.70;;;5.00;;
54201;SDS011;40108;53.152;5.844;2023-05-23T03:50:15;18.67;;;4.07;;
54201;SDS011;40108;53.152;5.844;2023-05-23T03:52:41;20.58;;;4.97;;
54201;SDS011;40108;53.152;5.844;2023-05-23T03:55:15;20.52;;;4.72;;
54201;SDS011;40108;53.152;5.844;2023-05-23T03:57:51;19.92;;;4.38;;
54201;SDS011;40108;53.152;5.844;2023-05-23T04:00:17;21.73;;;5.32;;
54201;SDS011;40108;53.152;5.844;2023-05-23T04:02:55;17.85;;;4.70;;
54201;SDS011;40108;53.152;5.844;2023-05-23T04:05:33;19.10;;;4.93;;
54201;SDS011;40108;53.152;5.844;2023-05-23T04:08:22;24.70;;;5.72;;
54201;SDS011;40108;53.152;5.844;2023-05-23T04:10:50;17.40;;;5.20;;
54201;SDS011;40108;53.152;5.844;2023-05-23T04:13:21;25.35;;;6.03;;
54201;SDS011;40108;53.152;5.844;2023-05-23T04:15:51;20.65;;;5.63;;
54201;SDS011;40108;53.152;5.844;2023-05-23T04:18:22;17.75;;;5.28;;
54201;SDS011;40108;53.152;5.844;2023-05-23T04:20:53;21.45;;;5.43;;
54201;SDS011;40108;53.152;5.844;2023-05-23T04:23:31;17.15;;;5.07;;
54201;SDS011;40108;53.152;5.844;2023-05-23T04:26:08;19.50;;;5.43;;
54201;SDS011;40108;53.152;5.844;2023-05-23T04:28:54;27.17;;;6.75;;
54201;SDS011;40108;53.152;5.844;2023-05-23T04:31:27;21.40;;;6.03;;
54201;SDS011;40108;53.152;5.844;2023-05-23T04:34:01;20.92;;;5.70;;
54201;SDS011;40108;53.152;5.844;2023-05-23T04:36:29;13.63;;;5.40;;
54201;SDS011;40108;53.152;5.844;2023-05-23T04:39:13;24.52;;;5.72;;
54201;SDS011;40108;53.152;5.844;2023-05-23T04:41:44;23.98;;;6.70;;
54201;SDS011;40108;53.152;5.844;2023-05-23T04:44:18;21.63;;;6.18;;
54201;SDS011;40108;53.152;5.844;2023-05-23T04:46:44;21.13;;;6.70;;
54201;SDS011;40108;53.152;5.844;2023-05-23T04:49:18;24.45;;;6.97;;
54201;SDS011;40108;53.152;5.844;2023-05-23T04:51:53;24.55;;;6.50;;
54201;SDS011;40108;53.152;5.844;2023-05-23T04:54:32;21.17;;;6.15;;
54201;SDS011;40108;53.152;5.844;2023-05-23T04:57:11;22.23;;;6.53;;
54201;SDS011;40108;53.152;5.844;2023-05-23T04:59:37;20.15;;;6.50;;
54201;SDS011;40108;53.152;5.844;2023-05-23T05:02:17;22.02;;;6.05;;
54201;SDS011;40108;53.152;5.844;2023-05-23T05:04:58;20.90;;;6.13;;
54201;SDS011;40108;53.152;5.844;2023-05-23T05:07:24;14.73;;;5.20;;
54201;SDS011;40108;53.152;5.844;2023-05-23T05:09:50;20.08;;;4.97;;
54201;SDS011;40108;53.152;5.844;2023-05-23T05:12:21;20.73;;;5.70;;
54201;SDS011;40108;53.152;5.844;2023-05-23T05:14:52;16.85;;;4.93;;
54201;SDS011;40108;53.152;5.844;2023-05-23T05:17:23;14.93;;;5.03;;
54201;SDS011;40108;53.152;5.844;2023-05-23T05:19:57;18.65;;;5.10;;
54201;SDS011;40108;53.152;5.844;2023-05-23T05:22:41;16.70;;;4.28;;
54201;SDS011;40108;53.152;5.844;2023-05-23T05:25:18;21.02;;;4.50;;
54201;SDS011;40108;53.152;5.844;2023-05-23T05:27:59;18.50;;;4.40;;
54201;SDS011;40108;53.152;5.844;2023-05-23T05:30:32;21.65;;;4.07;;
54201;SDS011;40108;53.152;5.844;2023-05-23T05:32:59;20.10;;;4.45;;
54201;SDS011;40108;53.152;5.844;2023-05-23T05:35:35;15.35;;;3.80;;
54201;SDS011;40108;53.152;5.844;2023-05-23T05:38:04;18.20;;;5.03;;
54201;SDS011;40108;53.152;5.844;2023-05-23T05:40:34;21.23;;;4.13;;
54201;SDS011;40108;53.152;5.844;2023-05-23T05:43:06;20.90;;;3.72;;
54201;SDS011;40108;53.152;5.844;2023-05-23T05:45:34;22.00;;;3.78;;
54201;SDS011;40108;53.152;5.844;2023-05-23T05:48:03;27.98;;;4.63;;
54201;SDS011;40108;53.152;5.844;2023-05-23T05:50:29;18.25;;;4.28;;
54201;SDS011;40108;53.152;5.844;2023-05-23T05:52:57;21.40;;;5.25;;
54201;SDS011;40108;53.152;5.844;2023-05-23T05:55:30;20.55;;;4.28;;
54201;SDS011;40108;53.152;5.844;2023-05-23T05:57:58;23.67;;;4.22;;
54201;SDS011;40108;53.152;5.844;2023-05-23T06:00:33;24.00;;;4.40;;
54201;SDS011;40108;53.152;5.844;2023-05-23T06:03:20;17.20;;;3.90;;
54201;SDS011;40108;53.152;5.844;2023-05-23T06:05:48;20.05;;;4.53;;
54201;SDS011;40108;53.152;5.844;2023-05-23T06:08:17;28.92;;;4.90;;
54201;SDS011;40108;53.152;5.844;2023-05-23T06:11:02;19.92;;;4.22;;
54201;SDS011;40108;53.152;5.844;2023-05-23T06:13:31;23.27;;;4.57;;
54201;SDS011;40108;53.152;5.844;2023-05-23T06:16:00;24.38;;;4.25;;
54201;SDS011;40108;53.152;5.844;2023-05-23T06:18:25;29.17;;;4.55;;
54201;SDS011;40108;53.152;5.844;2023-05-23T06:20:51;28.80;;;4.45;;
54201;SDS011;40108;53.152;5.844;2023-05-23T06:23:39;19.02;;;3.78;;
54201;SDS011;40108;53.152;5.844;2023-05-23T06:26:10;25.63;;;4.53;;
54201;SDS011;40108;53.152;5.844;2023-05-23T06:28:39;20.95;;;4.22;;
54201;SDS011;40108;53.152;5.844;2023-05-23T06:31:12;28.23;;;4.43;;
54201;SDS011;40108;53.152;5.844;2023-05-23T06:33:38;20.23;;;3.63;;
54201;SDS011;40108;53.152;5.844;2023-05-23T06:36:11;21.25;;;4.10;;
54201;SDS011;40108;53.152;5.844;2023-05-23T06:38:40;23.25;;;4.13;;
54201;SDS011;40108;53.152;5.844;2023-05-23T06:41:06;21.95;;;3.80;;
54201;SDS011;40108;53.152;5.844;2023-05-23T06:43:37;17.92;;;3.67;;
54201;SDS011;40108;53.152;5.844;2023-05-23T06:46:03;28.00;;;4.15;;
54201;SDS011;40108;53.152;5.844;2023-05-23T06:48:33;24.52;;;3.67;;
54201;SDS011;40108;53.152;5.844;2023-05-23T06:51:02;23.85;;;4.03;;
54201;SDS011;40108;53.152;5.844;2023-05-23T06:53:28;29.00;;;4.45;;
54201;SDS011;40108;53.152;5.844;2023-05-23T06:55:56;24.73;;;4.07;;
54201;SDS011;40108;53.152;5.844;2023-05-23T06:58:24;23.80;;;4.35;;
54201;SDS011;40108;53.152;5.844;2023-05-23T07:00:53;25.88;;;3.85;;
54201;SDS011;40108;53.152;5.844;2023-05-23T07:03:30;20.90;;;4.18;;
54201;SDS011;40108;53.152;5.844;2023-05-23T07:06:06;22.67;;;3.95;;
54201;SDS011;40108;53.152;5.844;2023-05-23T07:08:59;24.27;;;4.10;;
54201;SDS011;40108;53.152;5.844;2023-05-23T07:11:37;25.60;;;4.38;;
54201;SDS011;40108;53.152;5.844;2023-05-23T07:14:05;21.17;;;3.60;;
54201;SDS011;40108;53.152;5.844;2023-05-23T07:16:33;22.10;;;3.80;;
54201;SDS011;40108;53.152;5.844;2023-05-23T07:19:00;24.00;;;4.10;;
54201;SDS011;40108;53.152;5.844;2023-05-23T07:21:26;21.42;;;4.05;;
54201;SDS011;40108;53.152;5.844;2023-05-23T07:24:07;23.13;;;4.45;;
54201;SDS011;40108;53.152;5.844;2023-05-23T07:26:42;23.17;;;4.05;;
54201;SDS011;40108;53.152;5.844;2023-05-23T07:29:08;27.15;;;3.83;;
54201;SDS011;40108;53.152;5.844;2023-05-23T07:31:46;29.80;;;4.82;;
54201;SDS011;40108;53.152;5.844;2023-05-23T07:34:12;19.08;;;3.90;;
54201;SDS011;40108;53.152;5.844;2023-05-23T07:36:45;19.35;;;3.90;;
54201;SDS011;40108;53.152;5.844;2023-05-23T07:39:14;22.33;;;4.50;;
54201;SDS011;40108;53.152;5.844;2023-05-23T07:41:46;19.77;;;4.10;;
54201;SDS011;40108;53.152;5.844;2023-05-23T07:44:22;20.30;;;3.85;;
54201;SDS011;40108;53.152;5.844;2023-05-23T07:46:48;26.42;;;4.15;;
54201;SDS011;40108;53.152;5.844;2023-05-23T07:49:16;21.67;;;4.30;;
54201;SDS011;40108;53.152;5.844;2023-05-23T07:51:45;28.42;;;4.50;;
54201;SDS011;40108;53.152;5.844;2023-05-23T07:54:13;23.88;;;4.15;;
54201;SDS011;40108;53.152;5.844;2023-05-23T07:56:39;27.05;;;4.47;;
54201;SDS011;40108;53.152;5.844;2023-05-23T07:59:16;25.00;;;4.03;;
54201;SDS011;40108;53.152;5.844;2023-05-23T08:01:59;22.70;;;4.00;;
54201;SDS011;40108;53.152;5.844;2023-05-23T08:04:25;19.08;;;3.75;;
54201;SDS011;40108;53.152;5.844;2023-05-23T08:09:25;23.25;;;3.92;;
54201;SDS011;40108;53.152;5.844;2023-05-23T08:11:56;22.77;;;4.30;;
54201;SDS011;40108;53.152;5.844;2023-05-23T08:14:22;24.02;;;4.10;;
54201;SDS011;40108;53.152;5.844;2023-05-23T08:16:58;22.60;;;3.90;;
54201;SDS011;40108;53.152;5.844;2023-05-23T08:19:24;23.67;;;4.32;;
54201;SDS011;40108;53.152;5.844;2023-05-23T08:21:55;23.90;;;4.17;;
54201;SDS011;40108;53.152;5.844;2023-05-23T08:24:21;26.13;;;4.40;;
54201;SDS011;40108;53.152;5.844;2023-05-23T08:26:56;21.58;;;3.58;;
54201;SDS011;40108;53.152;5.844;2023-05-23T08:29:34;22.80;;;3.85;;
54201;SDS011;40108;53.152;5.844;2023-05-23T08:32:02;18.83;;;4.28;;
54201;SDS011;40108;53.152;5.844;2023-05-23T08:34:39;24.05;;;4.20;;
54201;SDS011;40108;53.152;5.844;2023-05-23T08:37:22;24.25;;;3.83;;
54201;SDS011;40108;53.152;5.844;2023-05-23T08:39:48;24.65;;;3.20;;
54201;SDS011;40108;53.152;5.844;2023-05-23T08:42:19;21.13;;;3.78;;
54201;SDS011;40108;53.152;5.844;2023-05-23T08:44:44;23.05;;;3.63;;
54201;SDS011;40108;53.152;5.844;2023-05-23T08:47:10;18.80;;;3.72;;
54201;SDS011;40108;53.152;5.844;2023-05-23T08:49:56;22.30;;;3.75;;
54201;SDS011;40108;53.152;5.844;2023-05-23T08:52:24;19.10;;;3.75;;
54201;SDS011;40108;53.152;5.844;2023-05-23T08:54:51;17.60;;;2.97;;
54201;SDS011;40108;53.152;5.844;2023-05-23T08:57:17;21.38;;;3.92;;
54201;SDS011;40108;53.152;5.844;2023-05-23T08:59:42;25.25;;;3.92;;
54201;SDS011;40108;53.152;5.844;2023-05-23T09:02:12;25.55;;;4.15;;
54201;SDS011;40108;53.152;5.844;2023-05-23T09:04:38;26.42;;;3.88;;
54201;SDS011;40108;53.152;5.844;2023-05-23T09:07:05;25.60;;;3.72;;
54201;SDS011;40108;53.152;5.844;2023-05-23T09:09:36;20.05;;;4.22;;
54201;SDS011;40108;53.152;5.844;2023-05-23T09:12:02;19.67;;;3.42;;
54201;SDS011;40108;53.152;5.844;2023-05-23T09:14:28;17.35;;;3.42;;
54201;SDS011;40108;53.152;5.844;2023-05-23T09:17:02;17.40;;;3.58;;
54201;SDS011;40108;53.152;5.844;2023-05-23T09:19:31;25.15;;;4.50;;
54201;SDS011;40108;53.152;5.844;2023-05-23T09:21:57;24.98;;;3.55;;
54201;SDS011;40108;53.152;5.844;2023-05-23T09:24:40;22.30;;;3.63;;
54201;SDS011;40108;53.152;5.844;2023-05-23T09:27:08;19.02;;;3.70;;
54201;SDS011;40108;53.152;5.844;2023-05-23T09:29:37;27.05;;;4.00;;
54201;SDS011;40108;53.152;5.844;2023-05-23T09:32:09;25.92;;;3.25;;
54201;SDS011;40108;53.152;5.844;2023-05-23T09:34:41;23.60;;;3.90;;
54201;SDS011;40108;53.152;5.844;2023-05-23T09:37:21;19.05;;;3.70;;
54201;SDS011;40108;53.152;5.844;2023-05-23T09:39:53;22.60;;;3.92;;
54201;SDS011;40108;53.152;5.844;2023-05-23T09:42:32;19.83;;;3.85;;
54201;SDS011;40108;53.152;5.844;2023-05-23T09:45:03;22.95;;;3.53;;
54201;SDS011;40108;53.152;5.844;2023-05-23T09:47:29;21.95;;;3.78;;
54201;SDS011;40108;53.152;5.844;2023-05-23T09:49:55;17.58;;;3.17;;
54201;SDS011;40108;53.152;5.844;2023-05-23T09:52:21;22.02;;;3.97;;
54201;SDS011;40108;53.152;5.844;2023-05-23T09:54:56;22.00;;;3.25;;
54201;SDS011;40108;53.152;5.844;2023-05-23T09:57:27;23.70;;;4.00;;
54201;SDS011;40108;53.152;5.844;2023-05-23T09:59:58;23.05;;;3.88;;
54201;SDS011;40108;53.152;5.844;2023-05-23T10:02:38;23.23;;;4.07;;
54201;SDS011;40108;53.152;5.844;2023-05-23T10:05:06;21.67;;;3.53;;
54201;SDS011;40108;53.152;5.844;2023-05-23T10:07:35;18.95;;;3.50;;
54201;SDS011;40108;53.152;5.844;2023-05-23T10:10:05;20.70;;;3.53;;
54201;SDS011;40108;53.152;5.844;2023-05-23T10:12:43;17.58;;;3.42;;
54201;SDS011;40108;53.152;5.844;2023-05-23T10:15:13;26.33;;;4.00;;
54201;SDS011;40108;53.152;5.844;2023-05-23T10:20:51;20.73;;;3.97;;
54201;SDS011;40108;53.152;5.844;2023-05-23T10:23:21;18.80;;;4.00;;
54201;SDS011;40108;53.152;5.844;2023-05-23T10:25:48;21.50;;;4.03;;
54201;SDS011;40108;53.152;5.844;2023-05-23T10:28:15;26.80;;;3.67;;
54201;SDS011;40108;53.152;5.844;2023-05-23T10:30:41;17.45;;;3.33;;
54201;SDS011;40108;53.152;5.844;2023-05-23T10:33:08;18.80;;;3.67;;
54201;SDS011;40108;53.152;5.844;2023-05-23T10:35:38;23.75;;;4.32;;
54201;SDS011;40108;53.152;5.844;2023-05-23T10:38:28;22.75;;;4.35;;
54201;SDS011;40108;53.152;5.844;2023-05-23T10:41:09;18.42;;;3.50;;
54201;SDS011;40108;53.152;5.844;2023-05-23T10:46:11;20.50;;;3.20;;
54201;SDS011;40108;53.152;5.844;2023-05-23T10:48:42;21.00;;;3.33;;
54201;SDS011;40108;53.152;5.844;2023-05-23T10:51:09;15.85;;;3.20;;
54201;SDS011;40108;53.152;5.844;2023-05-23T10:53:43;21.42;;;3.38;;
54201;SDS011;40108;53.152;5.844;2023-05-23T10:56:13;19.15;;;3.15;;
54201;SDS011;40108;53.152;5.844;2023-05-23T10:58:51;20.40;;;3.83;;
54201;SDS011;40108;53.152;5.844;2023-05-23T11:01:18;19.55;;;3.25;;
54201;SDS011;40108;53.152;5.844;2023-05-23T11:06:10;20.15;;;3.67;;
54201;SDS011;40108;53.152;5.844;2023-05-23T11:09:13;24.95;;;4.30;;
54201;SDS011;40108;53.152;5.844;2023-05-23T11:14:16;16.30;;;3.55;;
54201;SDS011;40108;53.152;5.844;2023-05-23T11:16:43;22.05;;;3.80;;
54201;SDS011;40108;53.152;5.844;2023-05-23T11:21:49;18.30;;;2.67;;
54201;SDS011;40108;53.152;5.844;2023-05-23T11:24:17;14.35;;;3.30;;
54201;SDS011;40108;53.152;5.844;2023-05-23T11:26:53;19.40;;;3.00;;
54201;SDS011;40108;53.152;5.844;2023-05-23T11:29:25;17.10;;;3.10;;
54201;SDS011;40108;53.152;5.844;2023-05-23T11:31:54;22.95;;;3.97;;
54201;SDS011;40108;53.152;5.844;2023-05-23T11:34:21;20.60;;;3.20;;
54201;SDS011;40108;53.152;5.844;2023-05-23T11:36:53;15.57;;;3.28;;
54201;SDS011;40108;53.152;5.844;2023-05-23T11:39:20;15.57;;;2.60;;
54201;SDS011;40108;53.152;5.844;2023-05-23T11:41:57;15.13;;;3.47;;
54201;SDS011;40108;53.152;5.844;2023-05-23T11:44:24;14.32;;;2.67;;
54201;SDS011;40108;53.152;5.844;2023-05-23T11:47:02;19.65;;;3.25;;
54201;SDS011;40108;53.152;5.844;2023-05-23T11:49:35;18.13;;;3.10;;
54201;SDS011;40108;53.152;5.844;2023-05-23T11:52:02;10.68;;;2.75;;
54201;SDS011;40108;53.152;5.844;2023-05-23T11:54:29;11.77;;;2.53;;
54201;SDS011;40108;53.152;5.844;2023-05-23T11:56:54;14.65;;;2.90;;
54201;SDS011;40108;53.152;5.844;2023-05-23T11:59:22;17.38;;;3.20;;
54201;SDS011;40108;53.152;5.844;2023-05-23T12:01:50;14.55;;;2.63;;
54201;SDS011;40108;53.152;5.844;2023-05-23T12:04:16;14.60;;;2.53;;
54201;SDS011;40108;53.152;5.844;2023-05-23T12:06:45;16.48;;;2.65;;
54201;SDS011;40108;53.152;5.844;2023-05-23T12:09:12;20.35;;;3.30;;
54201;SDS011;40108;53.152;5.844;2023-05-23T12:11:39;18.40;;;3.15;;
54201;SDS011;40108;53.152;5.844;2023-05-23T12:14:06;20.83;;;3.13;;
54201;SDS011;40108;53.152;5.844;2023-05-23T12:16:34;15.55;;;3.20;;
54201;SDS011;40108;53.152;5.844;2023-05-23T12:19:01;12.65;;;2.42;;
54201;SDS011;40108;53.152;5.844;2023-05-23T12:24:22;12.15;;;2.75;;
54201;SDS011;40108;53.152;5.844;2023-05-23T12:26:48;18.05;;;3.25;;
54201;SDS011;40108;53.152;5.844;2023-05-23T12:29:20;17.08;;;2.78;;
54201;SDS011;40108;53.152;5.844;2023-05-23T12:31:59;14.52;;;2.70;;
54201;SDS011;40108;53.152;5.844;2023-05-23T12:34:26;15.93;;;2.90;;
54201;SDS011;40108;53.152;5.844;2023-05-23T12:37:00;23.02;;;3.45;;
54201;SDS011;40108;53.152;5.844;2023-05-23T12:39:30;15.43;;;2.60;;
54201;SDS011;40108;53.152;5.844;2023-05-23T12:42:07;13.52;;;2.45;;
54201;SDS011;40108;53.152;5.844;2023-05-23T12:44:34;16.90;;;2.50;;
54201;SDS011;40108;53.152;5.844;2023-05-23T12:46:59;17.77;;;2.88;;
54201;SDS011;40108;53.152;5.844;2023-05-23T12:49:26;13.30;;;2.40;;
54201;SDS011;40108;53.152;5.844;2023-05-23T12:51:52;14.23;;;2.78;;
54201;SDS011;40108;53.152;5.844;2023-05-23T12:54:23;16.58;;;2.95;;
54201;SDS011;40108;53.152;5.844;2023-05-23T12:56:50;17.45;;;2.50;;
54201;SDS011;40108;53.152;5.844;2023-05-23T12:59:15;14.52;;;2.80;;
54201;SDS011;40108;53.152;5.844;2023-05-23T13:01:41;13.32;;;2.45;;
54201;SDS011;40108;53.152;5.844;2023-05-23T13:04:07;12.88;;;2.63;;
54201;SDS011;40108;53.152;5.844;2023-05-23T13:06:32;13.52;;;2.85;;
54201;SDS011;40108;53.152;5.844;2023-05-23T13:08:58;11.85;;;2.65;;
54201;SDS011;40108;53.152;5.844;2023-05-23T13:11:24;17.63;;;3.30;;
54201;SDS011;40108;53.152;5.844;2023-05-23T13:13:51;8.98;;;2.30;;
54201;SDS011;40108;53.152;5.844;2023-05-23T13:16:17;16.13;;;3.05;;
54201;SDS011;40108;53.152;5.844;2023-05-23T13:18:43;13.27;;;2.65;;
54201;SDS011;40108;53.152;5.844;2023-05-23T13:21:08;13.68;;;2.40;;
54201;SDS011;40108;53.152;5.844;2023-05-23T13:23:34;16.42;;;2.75;;
54201;SDS011;40108;53.152;5.844;2023-05-23T13:26:01;14.70;;;2.60;;
54201;SDS011;40108;53.152;5.844;2023-05-23T13:28:27;18.95;;;3.47;;
54201;SDS011;40108;53.152;5.844;2023-05-23T13:30:53;15.27;;;2.60;;
54201;SDS011;40108;53.152;5.844;2023-05-23T13:33:19;21.73;;;2.92;;
54201;SDS011;40108;53.152;5.844;2023-05-23T13:35:47;14.80;;;2.70;;
54201;SDS011;40108;53.152;5.844;2023-05-23T13:38:16;17.20;;;2.80;;
54201;SDS011;40108;53.152;5.844;2023-05-23T13:40:43;15.98;;;2.72;;
54201;SDS011;40108;53.152;5.844;2023-05-23T13:43:09;16.73;;;2.88;;
54201;SDS011;40108;53.152;5.844;2023-05-23T13:45:35;13.05;;;2.42;;
54201;SDS011;40108;53.152;5.844;2023-05-23T13:48:00;15.93;;;2.55;;
54201;SDS011;40108;53.152;5.844;2023-05-23T13:50:26;13.20;;;2.40;;
54201;SDS011;40108;53.152;5.844;2023-05-23T13:52:52;14.60;;;2.65;;
54201;SDS011;40108;53.152;5.844;2023-05-23T13:55:18;15.93;;;3.03;;
54201;SDS011;40108;53.152;5.844;2023-05-23T13:57:44;13.98;;;2.33;;
54201;SDS011;40108;53.152;5.844;2023-05-23T14:00:10;12.73;;;2.28;;
54201;SDS011;40108;53.152;5.844;2023-05-23T14:02:36;11.90;;;1.92;;
54201;SDS011;40108;53.152;5.844;2023-05-23T14:05:02;13.73;;;2.47;;
54201;SDS011;40108;53.152;5.844;2023-05-23T14:07:28;14.07;;;2.58;;
54201;SDS011;40108;53.152;5.844;2023-05-23T14:09:55;14.82;;;2.58;;
54201;SDS011;40108;53.152;5.844;2023-05-23T14:12:21;14.77;;;2.40;;
54201;SDS011;40108;53.152;5.844;2023-05-23T14:14:47;9.15;;;2.25;;
54201;SDS011;40108;53.152;5.844;2023-05-23T14:17:13;11.55;;;2.10;;
54201;SDS011;40108;53.152;5.844;2023-05-23T14:19:40;15.70;;;2.75;;
54201;SDS011;40108;53.152;5.844;2023-05-23T14:22:06;15.10;;;2.40;;
54201;SDS011;40108;53.152;5.844;2023-05-23T14:24:32;18.75;;;3.20;;
54201;SDS011;40108;53.152;5.844;2023-05-23T14:26:58;9.80;;;2.05;;
54201;SDS011;40108;53.152;5.844;2023-05-23T14:29:23;12.30;;;2.60;;
54201;SDS011;40108;53.152;5.844;2023-05-23T14:31:49;15.13;;;2.92;;
54201;SDS011;40108;53.152;5.844;2023-05-23T14:34:15;13.13;;;2.28;;
54201;SDS011;40108;53.152;5.844;2023-05-23T14:36:41;18.38;;;3.72;;
54201;SDS011;40108;53.152;5.844;2023-05-23T14:39:07;19.83;;;3.00;;
54201;SDS011;40108;53.152;5.844;2023-05-23T14:41:33;15.52;;;2.70;;
54201;SDS011;40108;53.152;5.844;2023-05-23T14:43:59;17.45;;;3.03;;
54201;SDS011;40108;53.152;5.844;2023-05-23T14:46:25;18.05;;;2.67;;
54201;SDS011;40108;53.152;5.844;2023-05-23T14:48:51;19.02;;;3.28;;
54201;SDS011;40108;53.152;5.844;2023-05-23T14:51:16;19.08;;;2.80;;
54201;SDS011;40108;53.152;5.844;2023-05-23T14:53:42;18.55;;;2.58;;
54201;SDS011;40108;53.152;5.844;2023-05-23T14:56:08;15.88;;;2.50;;
54201;SDS011;40108;53.152;5.844;2023-05-23T14:58:33;14.68;;;2.67;;
54201;SDS011;40108;53.152;5.844;2023-05-23T15:00:59;13.90;;;2.58;;
54201;SDS011;40108;53.152;5.844;2023-05-23T15:03:25;14.07;;;2.50;;
54201;SDS011;40108;53.152;5.844;2023-05-23T15:05:52;18.42;;;2.70;;
54201;SDS011;40108;53.152;5.844;2023-05-23T15:08:17;13.77;;;2.70;;
54201;SDS011;40108;53.152;5.844;2023-05-23T15:10:43;12.50;;;2.15;;
54201;SDS011;40108;53.152;5.844;2023-05-23T15:13:10;15.52;;;2.47;;
54201;SDS011;40108;53.152;5.844;2023-05-23T15:15:36;12.38;;;2.13;;
54201;SDS011;40108;53.152;5.844;2023-05-23T15:18:03;11.23;;;2.67;;
54201;SDS011;40108;53.152;5.844;2023-05-23T15:20:32;15.35;;;2.60;;